Flight Track Log - Related Links

Times and Time Zones

All times are in EDT time to prevent confusion due to time zone crossing. See the N500HG flight status page for this flight to view local times or setup timezone preferences in your user account.

Time Position Orientation Groundspeed Altitude Reporting Facility
EDT Latitude Longitude Course Direction KTS MPH feet Rate Location/Type
Sun 03:24:44 PM 35.6594 -87.1094 26° Northeast 280 322 3,900  Level Memphis Center
Sun 03:25:44 PM 35.7147 -87.0767 26° Northeast 241 277 4,400 1,000 Climbing Memphis Center
Sun 03:26:44 PM 35.7600 -87.0492 26° Northeast 193 222 5,900 1,300 Climbing Memphis Center
Sun 03:27:44 PM 35.8031 -87.0219 27° Northeast 170 196 7,000 1,450 Climbing Memphis Center
Sun 03:28:44 PM 35.8508 -87.0122 North 165 190 8,800 1,600 Climbing Memphis Center
Sun 03:29:44 PM 35.8939 -86.9925 20° North 172 198 10,200 1,467 Climbing Memphis Center
Sun 03:31:44 PM 35.9928 -86.9475 20° North 185 213 13,200 1,600 Climbing Memphis Center
Sun 03:32:44 PM 36.0422 -86.9222 22° Northeast 195 224 15,000 1,650 Climbing Memphis Center
Sun 03:33:44 PM 36.0917 -86.9022 18° North 189 217 16,500 1,500 Climbing Memphis Center
Sun 03:34:44 PM 36.1411 -86.8847 16° North 184 212 18,000 1,450 Climbing Memphis Center
Sun 03:35:44 PM 36.1947 -86.8644 17° North 184 212 19,400 1,300 Climbing Memphis Center
Sun 03:36:44 PM 36.2506 -86.8467 14° North 189 217 20,600 1,150 Climbing Memphis Center
Sun 03:37:44 PM 36.3022 -86.8317 13° North 199 229 21,700 1,100 Climbing Memphis Center
Sun 03:38:44 PM 36.3581 -86.8136 15° North 208 239 22,800 1,000 Climbing Memphis Center
Sun 03:39:44 PM 36.4181 -86.8008 10° North 213 245 23,700 950 Climbing Memphis Center
Sun 03:40:44 PM 36.4694 -86.7753 22° Northeast 206 237 24,700 650 Climbing Memphis Center
Sun 03:41:44 PM 36.5228 -86.7469 23° Northeast 201 231 25,000 150 Climbing Memphis Center
Sun 03:42:44 PM 36.5867 -86.7131 23° Northeast 233 268 25,000  Level Memphis Center
Sun 03:43:44 PM 36.6583 -86.6736 24° Northeast 246 283 25,000  Level Memphis Center
Sun 03:44:44 PM 36.7197 -86.6397 24° Northeast 253 291 25,000  Level Memphis Center
Sun 03:45:44 PM 36.7856 -86.6058 22° Northeast 247 284 25,000  Level Memphis Center
Sun 03:46:44 PM 36.8450 -86.5744 23° Northeast 240 276 25,000  Level Memphis Center
Sun 03:47:44 PM 36.9025 -86.5433 23° Northeast 234 269 25,000  Level Memphis Center
Sun 03:48:44 PM 36.9639 -86.5092 24° Northeast 234 269 25,000  Level Memphis Center
Sun 03:49:44 PM 37.0233 -86.4750 25° Northeast 234 269 25,000  Level Memphis Center
Sun 03:50:44 PM 37.0847 -86.4436 22° Northeast 234 269 25,000  Level Memphis Center
Sun 03:51:44 PM 37.1419 -86.4119 24° Northeast 229 264 25,000  Level Memphis Center
Sun 03:53:58 PM 37.2736 -86.3392 24° Northeast 233 268 25,000  Level Indianapolis Center
Sun 03:55:00 PM 37.3347 -86.3061 23° Northeast 235 270 25,000  Level Indianapolis Center
Sun 03:56:03 PM 37.3950 -86.2719 24° Northeast 235 270 25,000  Level Indianapolis Center
Sun 03:57:05 PM 37.4553 -86.2389 24° Northeast 235 270 25,000  Level Indianapolis Center
Sun 03:58:07 PM 37.5142 -86.2019 26° Northeast 233 268 25,000  Level Indianapolis Center
Sun 03:59:09 PM 37.5806 -86.1622 25° Northeast 230 265 25,000  Level Indianapolis Center
Sun 04:01:13 PM 37.6953 -86.0931 26° Northeast 226 260 25,000  Level Indianapolis Center
Sun 04:02:15 PM 37.7531 -86.0581 26° Northeast 227 261 25,000 194 Level Indianapolis Center
Sun 04:03:17 PM 37.8086 -86.0228 27° Northeast 224 258 25,400 774 Climbing Indianapolis Center
Sun 04:04:19 PM 37.8586 -85.9919 26° Northeast 201 231 26,600 774 Climbing Indianapolis Center
Sun 04:05:21 PM 37.9028 -85.9664 25° Northeast 178 205 27,000 194 Climbing Indianapolis Center
Sun 04:06:23 PM 37.9636 -85.9267 27° Northeast 202 232 27,000  Level Indianapolis Center
Sun 04:07:25 PM 38.0169 -85.8944 25° Northeast 211 243 27,000  Level Indianapolis Center
Sun 04:08:27 PM 38.0700 -85.8614 26° Northeast 211 243 27,000  Level Indianapolis Center
Sun 04:09:29 PM 38.1211 -85.8300 26° Northeast 205 236 27,000  Level Indianapolis Center
Sun 04:10:30 PM 38.1717 -85.7978 27° Northeast 203 234 27,000  Level Indianapolis Center
Sun 04:11:32 PM 38.2225 -85.7675 25° Northeast 202 232 27,000  Level Indianapolis Center
Sun 04:12:34 PM 38.2700 -85.7364 27° Northeast 194 223 27,000  Level Indianapolis Center
Sun 04:13:36 PM 38.3267 -85.7017 26° Northeast 187 215 27,000  Level Indianapolis Center
Sun 04:14:38 PM 38.3714 -85.6728 27° Northeast 182 209 27,000  Level Indianapolis Center
Sun 04:15:40 PM 38.4167 -85.6444 26° Northeast 180 207 27,000  Level Indianapolis Center
Sun 04:16:42 PM 38.4622 -85.6156 26° Northeast 182 209 27,000  Level Indianapolis Center
Sun 04:17:44 PM 38.5086 -85.5861 26° Northeast 185 213 27,000  Level Indianapolis Center
Sun 04:18:46 PM 38.5547 -85.5567 27° Northeast 185 213 27,000  Level Indianapolis Center
Sun 04:19:48 PM 38.6017 -85.5281 25° Northeast 186 214 27,000  Level Indianapolis Center
Sun 04:20:50 PM 38.6586 -85.4925 26° Northeast 188 216 27,000  Level Indianapolis Center
Sun 04:21:52 PM 38.7044 -85.4633 26° Northeast 187 215 27,000  Level Indianapolis Center
Sun 04:22:54 PM 38.7511 -85.4336 26° Northeast 187 215 27,000  Level Indianapolis Center
Sun 04:23:56 PM 38.7972 -85.4044 26° Northeast 185 213 27,000  Level Indianapolis Center
Sun 04:24:58 PM 38.8431 -85.3742 27° Northeast 186 214 27,000  Level Indianapolis Center
Sun 04:26:00 PM 38.8906 -85.3456 25° Northeast 187 215 27,000  Level Indianapolis Center
Sun 04:27:02 PM 38.9450 -85.3103 27° Northeast 185 213 27,000  Level Indianapolis Center
Sun 04:28:04 PM 38.9911 -85.2806 27° Northeast 186 214 27,000 -439 Level Indianapolis Center
Sun 04:29:05 PM 39.0417 -85.2461 28° Northeast 202 232 26,100 -927 Descending Indianapolis Center
Sun 04:30:07 PM 39.1036 -85.2067 26° Northeast 241 277 25,100 -532 Descending Indianapolis Center
Sun 04:31:09 PM 39.1650 -85.1669 27° Northeast 248 285 25,000 -48 Descending Indianapolis Center
Sun 04:32:11 PM 39.2319 -85.1250 26° Northeast 227 261 25,000  Level Indianapolis Center
Sun 04:33:13 PM 39.2850 -85.0914 26° Northeast 217 250 25,000  Level Indianapolis Center
Sun 04:34:15 PM 39.3358 -85.0572 27° Northeast 208 239 25,000  Level Indianapolis Center
Sun 04:35:17 PM 39.3867 -85.0247 26° Northeast 205 236 25,000  Level Indianapolis Center
Sun 04:36:19 PM 39.4369 -84.9917 27° Northeast 204 235 25,000  Level Indianapolis Center
Sun 04:37:21 PM 39.4867 -84.9589 27° Northeast 204 235 25,000  Level Indianapolis Center
Sun 04:38:23 PM 39.5472 -84.9208 26° Northeast 201 231 25,000  Level Indianapolis Center
Sun 04:39:25 PM 39.5972 -84.8886 26° Northeast 202 232 25,000  Level Indianapolis Center
Sun 04:40:28 PM 39.6436 -84.8581 27° Northeast 199 229 25,000  Level Indianapolis Center
Sun 04:41:30 PM 39.7022 -84.8203 26° Northeast 200 230 25,000  Level Indianapolis Center
Sun 04:42:32 PM 39.7517 -84.7878 27° Northeast 199 229 25,000  Level Indianapolis Center
Sun 04:43:34 PM 39.8017 -84.7550 27° Northeast 198 228 25,000  Level Indianapolis Center
Sun 04:44:36 PM 39.8519 -84.7214 27° Northeast 199 229 25,000  Level Indianapolis Center
Sun 04:46:40 PM 39.9533 -84.6544 27° Northeast 203 234 25,000  Level Indianapolis Center
Sun 04:47:42 PM 40.0033 -84.6208 27° Northeast 201 231 25,000  Level Indianapolis Center
Sun 04:48:43 PM 40.0539 -84.5875 27° Northeast 201 231 25,000  Level Indianapolis Center
Sun 04:49:45 PM 40.1133 -84.5483 27° Northeast 202 232 25,000  Level Indianapolis Center
Sun 04:50:47 PM 40.1639 -84.5144 27° Northeast 202 232 25,000 -48 Level Indianapolis Center
Sun 04:51:49 PM 40.2147 -84.4803 27° Northeast 202 232 24,900 -290 Descending Indianapolis Center
Sun 04:52:51 PM 40.2664 -84.4453 27° Northeast 206 237 24,400 -484 Descending Indianapolis Center
Sun 04:53:53 PM 40.3158 -84.4125 27° Northeast 199 229 23,900 -339 Descending Indianapolis Center
Sun 04:54:55 PM 40.3617 -84.3819 27° Northeast 186 214 23,700 -581 Descending Indianapolis Center
Sun 04:55:57 PM 40.4097 -84.3492 27° Northeast 191 220 22,700 -1,161 Descending Indianapolis Center
Sun 04:56:59 PM 40.4650 -84.3111 28° Northeast 219 252 21,300 -1,306 Descending Indianapolis Center
Sun 04:58:01 PM 40.5256 -84.2717 26° Northeast 236 272 20,000 -1,355 Descending Indianapolis Center
Sun 04:59:03 PM 40.5947 -84.2244 27° Northeast 239 275 18,500 -1,306 Descending Indianapolis Center
Sun 05:00:05 PM 40.6544 -84.1842 27° Northeast 239 275 17,300 -726 Descending Indianapolis Center
Sun 05:01:07 PM 40.7106 -84.1475 26° Northeast 225 259 17,000 -145 Descending Indianapolis Center
Sun 05:02:09 PM 40.7575 -84.1144 28° Northeast 194 223 17,000 -48 Level Indianapolis Center
Sun 05:03:11 PM 40.8069 -84.0822 26° Northeast 195 224 16,900 -244 Descending Indianapolis Center
Sun 05:04:12 PM 40.8583 -84.0458 28° Northeast 205 236 16,500 -732 Descending Indianapolis Center
Sun 05:05:14 PM 40.9253 -84.0303 10° North 241 277 15,400 -1,113 Descending Indianapolis Center
Sun 05:06:16 PM 40.9953 -84.0172 North 250 288 14,200 -1,210 Descending Indianapolis Center
Sun 05:07:18 PM 41.0719 -84.0014 North 253 291 12,900 -1,269 Descending Indianapolis Center
Sun 05:08:00 PM 41.1253 -83.9878 11° North 255 293 12,000 -1,235 Descending Cleveland Center
Sun 05:09:00 PM 41.1908 -83.9608 17° North 255 293 10,800 -1,350 Descending Cleveland Center
Sun 05:10:00 PM 41.2583 -83.9367 15° North 250 288 9,300 -2,000 Descending Cleveland Center
Sun 05:11:00 PM 41.3236 -83.9094 17° North 242 278 6,800 -2,500 Descending Cleveland Center
Sun 05:12:00 PM 41.3761 -83.8983 North 232 267 4,300 2,100 Descending Cleveland Center
Sun 05:13:00 PM 41.4431 -83.8964 North 216 249 11,000 3,350 Climbing Cleveland Center
Sun 05:14:00 PM 41.4972 -83.8964 360° North 216 249 11,000  Level Cleveland Center
Sun 05:16:00 PM 41.5833 -83.8000 17° North  Level FlightAware
Sun 05:23:00 PM 41.5868 -83.8078 17° North  Level Estimated
Sun 05:24:00 PM 41.5833 -83.8000 17° North  Level FlightAware
Sun 05:25:00 PM 41.5868 -83.8078 17° North  Level Estimated

Login

Don't have an account? Register now (free) for customized features, flight alerts, and more!